<?xml version="1.0" encoding="UTF-8" standalone="no" ?>
<gpx xmlns="http://www.topografix.com/GPX/1/1" xmlns:xsi="http://www.w3.org/2001/XMLSchema-instance" xsi:schemaLocation="http://www.topografix.com/GPX/1/1 http://www.topografix.com/GPX/1/1/gpx.xsd" version="1.1" creator="VisuGPX - https://www.visugpx.com">
  <metadata>
    <name>Sortie Moto</name>
  </metadata>
  <trk>
    <name><![CDATA[Journal actif: 2020-05-09 17:04]]></name>
    <trkseg>
      <trkpt lat="46.00176" lon="6.19997">
        <ele>558.18</ele>
        <time>2020-05-09T15:04:38Z</time>
      </trkpt>
      <trkpt lat="46.00173" lon="6.19993">
        <ele>557.22</ele>
        <time>2020-05-09T15:04:55Z</time>
      </trkpt>
      <trkpt lat="46.00192" lon="6.20024">
        <ele>556.26</ele>
        <time>2020-05-09T15:05:01Z</time>
      </trkpt>
      <trkpt lat="46.00189" lon="6.2002">
        <ele>554.34</ele>
        <time>2020-05-09T15:05:10Z</time>
      </trkpt>
      <trkpt lat="46.00194" lon="6.2002">
        <ele>555.3</ele>
        <time>2020-05-09T15:05:15Z</time>
      </trkpt>
      <trkpt lat="46.00199" lon="6.20006">
        <ele>556.26</ele>
        <time>2020-05-09T15:05:16Z</time>
      </trkpt>
      <trkpt lat="46.00209" lon="6.19979">
        <ele>556.26</ele>
        <time>2020-05-09T15:05:17Z</time>
      </trkpt>
      <trkpt lat="46.00257" lon="6.19852">
        <ele>560.11</ele>
        <time>2020-05-09T15:05:23Z</time>
      </trkpt>
      <trkpt lat="46.00266" lon="6.19827">
        <ele>559.62</ele>
        <time>2020-05-09T15:05:25Z</time>
      </trkpt>
      <trkpt lat="46.0028" lon="6.19775">
        <ele>559.62</ele>
        <time>2020-05-09T15:05:26Z</time>
      </trkpt>
      <trkpt lat="46.00283" lon="6.19745">
        <ele>559.62</ele>
        <time>2020-05-09T15:05:27Z</time>
      </trkpt>
      <trkpt lat="46.00287" lon="6.19713">
        <ele>559.62</ele>
        <time>2020-05-09T15:05:28Z</time>
      </trkpt>
      <trkpt lat="46.00287" lon="6.19682">
        <ele>559.62</ele>
        <time>2020-05-09T15:05:29Z</time>
      </trkpt>
      <trkpt lat="46.00293" lon="6.19493">
        <ele>560.59</ele>
        <time>2020-05-09T15:05:36Z</time>
      </trkpt>
      <trkpt lat="46.00299" lon="6.19461">
        <ele>560.59</ele>
        <time>2020-05-09T15:05:37Z</time>
      </trkpt>
      <trkpt lat="46.00371" lon="6.19092">
        <ele>555.78</ele>
        <time>2020-05-09T15:05:48Z</time>
      </trkpt>
      <trkpt lat="46.00396" lon="6.18975">
        <ele>551.45</ele>
        <time>2020-05-09T15:05:54Z</time>
      </trkpt>
      <trkpt lat="46.00401" lon="6.18955">
        <ele>549.05</ele>
        <time>2020-05-09T15:05:56Z</time>
      </trkpt>
      <trkpt lat="46.00399" lon="6.18954">
        <ele>548.09</ele>
        <time>2020-05-09T15:05:57Z</time>
      </trkpt>
      <trkpt lat="46.00395" lon="6.18952">
        <ele>547.13</ele>
        <time>2020-05-09T15:05:58Z</time>
      </trkpt>
      <trkpt lat="46.0039" lon="6.18949">
        <ele>546.17</ele>
        <time>2020-05-09T15:05:59Z</time>
      </trkpt>
      <trkpt lat="46.00383" lon="6.18945">
        <ele>545.2</ele>
        <time>2020-05-09T15:06:00Z</time>
      </trkpt>
      <trkpt lat="46.00379" lon="6.18942">
        <ele>544.72</ele>
        <time>2020-05-09T15:06:01Z</time>
      </trkpt>
      <trkpt lat="46.00369" lon="6.18932">
        <ele>544.24</ele>
        <time>2020-05-09T15:06:02Z</time>
      </trkpt>
      <trkpt lat="46.00361" lon="6.18922">
        <ele>543.28</ele>
        <time>2020-05-09T15:06:03Z</time>
      </trkpt>
      <trkpt lat="46.00358" lon="6.1891">
        <ele>542.8</ele>
        <time>2020-05-09T15:06:04Z</time>
      </trkpt>
      <trkpt lat="46.0036" lon="6.18896">
        <ele>542.32</ele>
        <time>2020-05-09T15:06:06Z</time>
      </trkpt>
      <trkpt lat="46.0037" lon="6.18882">
        <ele>541.84</ele>
        <time>2020-05-09T15:06:07Z</time>
      </trkpt>
      <trkpt lat="46.00377" lon="6.18878">
        <ele>541.36</ele>
        <time>2020-05-09T15:06:08Z</time>
      </trkpt>
      <trkpt lat="46.00391" lon="6.18881">
        <ele>541.84</ele>
        <time>2020-05-09T15:06:10Z</time>
      </trkpt>
      <trkpt lat="46.0042" lon="6.18895">
        <ele>542.8</ele>
        <time>2020-05-09T15:06:12Z</time>
      </trkpt>
      <trkpt lat="46.0042" lon="6.18895">
        <ele>543.76</ele>
        <time>2020-05-09T15:06:13Z</time>
      </trkpt>
      <trkpt lat="46.00443" lon="6.18919">
        <ele>544.24</ele>
        <time>2020-05-09T15:06:14Z</time>
      </trkpt>
      <trkpt lat="46.00517" lon="6.19035">
        <ele>549.05</ele>
        <time>2020-05-09T15:06:19Z</time>
      </trkpt>
      <trkpt lat="46.0053" lon="6.19066">
        <ele>551.45</ele>
        <time>2020-05-09T15:06:20Z</time>
      </trkpt>
      <trkpt lat="46.00629" lon="6.19328">
        <ele>565.39</ele>
        <time>2020-05-09T15:06:28Z</time>
      </trkpt>
      <trkpt lat="46.00685" lon="6.1948">
        <ele>574.04</ele>
        <time>2020-05-09T15:06:34Z</time>
      </trkpt>
      <trkpt lat="46.0069" lon="6.19494">
        <ele>575.01</ele>
        <time>2020-05-09T15:06:35Z</time>
      </trkpt>
      <trkpt lat="46.00694" lon="6.19509">
        <ele>575.97</ele>
        <time>2020-05-09T15:06:36Z</time>
      </trkpt>
      <trkpt lat="46.00692" lon="6.1953">
        <ele>576.45</ele>
        <time>2020-05-09T15:06:37Z</time>
      </trkpt>
      <trkpt lat="46.00686" lon="6.1954">
        <ele>576.93</ele>
        <time>2020-05-09T15:06:38Z</time>
      </trkpt>
      <trkpt lat="46.00674" lon="6.19538">
        <ele>577.41</ele>
        <time>2020-05-09T15:06:39Z</time>
      </trkpt>
      <trkpt lat="46.00667" lon="6.19535">
        <ele>578.37</ele>
        <time>2020-05-09T15:06:40Z</time>
      </trkpt>
      <trkpt lat="46.00658" lon="6.19517">
        <ele>578.85</ele>
        <time>2020-05-09T15:06:41Z</time>
      </trkpt>
      <trkpt lat="46.00651" lon="6.195">
        <ele>579.33</ele>
        <time>2020-05-09T15:06:42Z</time>
      </trkpt>
      <trkpt lat="46.00642" lon="6.19481">
        <ele>580.29</ele>
        <time>2020-05-09T15:06:43Z</time>
      </trkpt>
      <trkpt lat="46.00633" lon="6.19459">
        <ele>581.73</ele>
        <time>2020-05-09T15:06:44Z</time>
      </trkpt>
      <trkpt lat="46.00597" lon="6.19388">
        <ele>585.1</ele>
        <time>2020-05-09T15:06:47Z</time>
      </trkpt>
      <trkpt lat="46.0056" lon="6.19329">
        <ele>588.46</ele>
        <time>2020-05-09T15:06:50Z</time>
      </trkpt>
      <trkpt lat="46.00547" lon="6.19319">
        <ele>589.43</ele>
        <time>2020-05-09T15:06:51Z</time>
      </trkpt>
      <trkpt lat="46.00535" lon="6.1931">
        <ele>590.39</ele>
        <time>2020-05-09T15:06:52Z</time>
      </trkpt>
      <trkpt lat="46.00522" lon="6.19308">
        <ele>590.87</ele>
        <time>2020-05-09T15:06:53Z</time>
      </trkpt>
      <trkpt lat="46.00511" lon="6.19312">
        <ele>591.83</ele>
        <time>2020-05-09T15:06:54Z</time>
      </trkpt>
      <trkpt lat="46.00499" lon="6.19319">
        <ele>592.79</ele>
        <time>2020-05-09T15:06:55Z</time>
      </trkpt>
      <trkpt lat="46.00492" lon="6.19331">
        <ele>593.27</ele>
        <time>2020-05-09T15:06:56Z</time>
      </trkpt>
      <trkpt lat="46.00484" lon="6.19347">
        <ele>594.23</ele>
        <time>2020-05-09T15:06:57Z</time>
      </trkpt>
      <trkpt lat="46.0048" lon="6.19364">
        <ele>595.67</ele>
        <time>2020-05-09T15:06:58Z</time>
      </trkpt>
      <trkpt lat="46.0048" lon="6.19382">
        <ele>596.64</ele>
        <time>2020-05-09T15:06:59Z</time>
      </trkpt>
      <trkpt lat="46.00487" lon="6.19401">
        <ele>598.08</ele>
        <time>2020-05-09T15:07:00Z</time>
      </trkpt>
      <trkpt lat="46.00495" lon="6.19423">
        <ele>600</ele>
        <time>2020-05-09T15:07:01Z</time>
      </trkpt>
      <trkpt lat="46.00505" lon="6.1944">
        <ele>600.96</ele>
        <time>2020-05-09T15:07:02Z</time>
      </trkpt>
      <trkpt lat="46.00518" lon="6.19461">
        <ele>602.88</ele>
        <time>2020-05-09T15:07:03Z</time>
      </trkpt>
      <trkpt lat="46.00533" lon="6.1948">
        <ele>604.33</ele>
        <time>2020-05-09T15:07:04Z</time>
      </trkpt>
      <trkpt lat="46.00571" lon="6.19514">
        <ele>607.21</ele>
        <time>2020-05-09T15:07:06Z</time>
      </trkpt>
      <trkpt lat="46.00589" lon="6.19535">
        <ele>608.65</ele>
        <time>2020-05-09T15:07:07Z</time>
      </trkpt>
      <trkpt lat="46.00606" lon="6.19557">
        <ele>609.61</ele>
        <time>2020-05-09T15:07:08Z</time>
      </trkpt>
      <trkpt lat="46.00618" lon="6.19588">
        <ele>611.06</ele>
        <time>2020-05-09T15:07:09Z</time>
      </trkpt>
      <trkpt lat="46.0063" lon="6.19618">
        <ele>612.5</ele>
        <time>2020-05-09T15:07:10Z</time>
      </trkpt>
      <trkpt lat="46.00642" lon="6.19648">
        <ele>613.46</ele>
        <time>2020-05-09T15:07:11Z</time>
      </trkpt>
      <trkpt lat="46.00704" lon="6.19832">
        <ele>621.15</ele>
        <time>2020-05-09T15:07:17Z</time>
      </trkpt>
      <trkpt lat="46.00704" lon="6.19832">
        <ele>622.59</ele>
        <time>2020-05-09T15:07:18Z</time>
      </trkpt>
      <trkpt lat="46.00765" lon="6.2012">
        <ele>637.01</ele>
        <time>2020-05-09T15:07:27Z</time>
      </trkpt>
      <trkpt lat="46.00864" lon="6.20482">
        <ele>652.39</ele>
        <time>2020-05-09T15:07:41Z</time>
      </trkpt>
      <trkpt lat="46.0088" lon="6.20526">
        <ele>654.8</ele>
        <time>2020-05-09T15:07:43Z</time>
      </trkpt>
      <trkpt lat="46.00891" lon="6.20544">
        <ele>655.28</ele>
        <time>2020-05-09T15:07:44Z</time>
      </trkpt>
      <trkpt lat="46.00903" lon="6.20563">
        <ele>656.24</ele>
        <time>2020-05-09T15:07:45Z</time>
      </trkpt>
      <trkpt lat="46.00917" lon="6.20579">
        <ele>657.2</ele>
        <time>2020-05-09T15:07:46Z</time>
      </trkpt>
      <trkpt lat="46.0093" lon="6.20596">
        <ele>658.16</ele>
        <time>2020-05-09T15:07:47Z</time>
      </trkpt>
      <trkpt lat="46.01047" lon="6.20735">
        <ele>660.56</ele>
        <time>2020-05-09T15:07:54Z</time>
      </trkpt>
      <trkpt lat="46.01213" lon="6.20933">
        <ele>666.81</ele>
        <time>2020-05-09T15:08:04Z</time>
      </trkpt>
      <trkpt lat="46.01373" lon="6.2114">
        <ele>671.14</ele>
        <time>2020-05-09T15:08:14Z</time>
      </trkpt>
      <trkpt lat="46.01428" lon="6.2123">
        <ele>672.58</ele>
        <time>2020-05-09T15:08:18Z</time>
      </trkpt>
      <trkpt lat="46.01444" lon="6.21248">
        <ele>673.06</ele>
        <time>2020-05-09T15:08:19Z</time>
      </trkpt>
      <trkpt lat="46.01549" lon="6.21355">
        <ele>676.42</ele>
        <time>2020-05-09T15:08:25Z</time>
      </trkpt>
      <trkpt lat="46.01702" lon="6.21522">
        <ele>682.19</ele>
        <time>2020-05-09T15:08:35Z</time>
      </trkpt>
      <trkpt lat="46.01714" lon="6.21545">
        <ele>682.67</ele>
        <time>2020-05-09T15:08:36Z</time>
      </trkpt>
      <trkpt lat="46.01802" lon="6.21756">
        <ele>685.08</ele>
        <time>2020-05-09T15:08:45Z</time>
      </trkpt>
      <trkpt lat="46.01893" lon="6.2201">
        <ele>688.44</ele>
        <time>2020-05-09T15:08:55Z</time>
      </trkpt>
      <trkpt lat="46.0194" lon="6.2223">
        <ele>689.4</ele>
        <time>2020-05-09T15:09:01Z</time>
      </trkpt>
      <trkpt lat="46.01982" lon="6.22495">
        <ele>691.33</ele>
        <time>2020-05-09T15:09:06Z</time>
      </trkpt>
      <trkpt lat="46.02011" lon="6.22698">
        <ele>696.13</ele>
        <time>2020-05-09T15:09:11Z</time>
      </trkpt>
      <trkpt lat="46.02043" lon="6.22908">
        <ele>699.02</ele>
        <time>2020-05-09T15:09:18Z</time>
      </trkpt>
      <trkpt lat="46.0205" lon="6.22935">
        <ele>699.5</ele>
        <time>2020-05-09T15:09:19Z</time>
      </trkpt>
      <trkpt lat="46.02058" lon="6.22962">
        <ele>699.98</ele>
        <time>2020-05-09T15:09:20Z</time>
      </trkpt>
      <trkpt lat="46.02067" lon="6.22987">
        <ele>700.46</ele>
        <time>2020-05-09T15:09:21Z</time>
      </trkpt>
      <trkpt lat="46.02079" lon="6.23009">
        <ele>700.94</ele>
        <time>2020-05-09T15:09:22Z</time>
      </trkpt>
      <trkpt lat="46.02092" lon="6.23028">
        <ele>700.94</ele>
        <time>2020-05-09T15:09:23Z</time>
      </trkpt>
      <trkpt lat="46.02105" lon="6.23045">
        <ele>701.42</ele>
        <time>2020-05-09T15:09:24Z</time>
      </trkpt>
      <trkpt lat="46.02118" lon="6.23061">
        <ele>701.9</ele>
        <time>2020-05-09T15:09:25Z</time>
      </trkpt>
      <trkpt lat="46.02141" lon="6.23093">
        <ele>702.86</ele>
        <time>2020-05-09T15:09:27Z</time>
      </trkpt>
      <trkpt lat="46.02152" lon="6.23109">
        <ele>703.34</ele>
        <time>2020-05-09T15:09:28Z</time>
      </trkpt>
      <trkpt lat="46.02244" lon="6.2329">
        <ele>706.23</ele>
        <time>2020-05-09T15:09:39Z</time>
      </trkpt>
      <trkpt lat="46.02277" lon="6.23356">
        <ele>707.19</ele>
        <time>2020-05-09T15:09:43Z</time>
      </trkpt>
      <trkpt lat="46.02286" lon="6.2337">
        <ele>707.67</ele>
        <time>2020-05-09T15:09:44Z</time>
      </trkpt>
      <trkpt lat="46.02297" lon="6.23383">
        <ele>708.63</ele>
        <time>2020-05-09T15:09:45Z</time>
      </trkpt>
      <trkpt lat="46.02373" lon="6.23452">
        <ele>713.92</ele>
        <time>2020-05-09T15:09:50Z</time>
      </trkpt>
      <trkpt lat="46.02393" lon="6.2347">
        <ele>715.36</ele>
        <time>2020-05-09T15:09:51Z</time>
      </trkpt>
      <trkpt lat="46.02411" lon="6.23492">
        <ele>716.32</ele>
        <time>2020-05-09T15:09:52Z</time>
      </trkpt>
      <trkpt lat="46.02426" lon="6.23517">
        <ele>717.28</ele>
        <time>2020-05-09T15:09:53Z</time>
      </trkpt>
      <trkpt lat="46.02439" lon="6.23547">
        <ele>718.72</ele>
        <time>2020-05-09T15:09:54Z</time>
      </trkpt>
      <trkpt lat="46.02452" lon="6.23575">
        <ele>720.16</ele>
        <time>2020-05-09T15:09:55Z</time>
      </trkpt>
      <trkpt lat="46.02465" lon="6.23602">
        <ele>721.13</ele>
        <time>2020-05-09T15:09:56Z</time>
      </trkpt>
      <trkpt lat="46.02522" lon="6.23693">
        <ele>724.97</ele>
        <time>2020-05-09T15:10:00Z</time>
      </trkpt>
      <trkpt lat="46.02538" lon="6.2371">
        <ele>725.93</ele>
        <time>2020-05-09T15:10:01Z</time>
      </trkpt>
      <trkpt lat="46.02555" lon="6.23724">
        <ele>726.89</ele>
        <time>2020-05-09T15:10:02Z</time>
      </trkpt>
      <trkpt lat="46.02573" lon="6.23735">
        <ele>727.37</ele>
        <time>2020-05-09T15:10:03Z</time>
      </trkpt>
      <trkpt lat="46.0259" lon="6.23743">
        <ele>728.34</ele>
        <time>2020-05-09T15:10:04Z</time>
      </trkpt>
      <trkpt lat="46.02608" lon="6.23751">
        <ele>729.3</ele>
        <time>2020-05-09T15:10:05Z</time>
      </trkpt>
      <trkpt lat="46.02626" lon="6.23755">
        <ele>730.26</ele>
        <time>2020-05-09T15:10:06Z</time>
      </trkpt>
      <trkpt lat="46.02644" lon="6.23759">
        <ele>730.74</ele>
        <time>2020-05-09T15:10:07Z</time>
      </trkpt>
      <trkpt lat="46.02862" lon="6.23802">
        <ele>741.31</ele>
        <time>2020-05-09T15:10:18Z</time>
      </trkpt>
      <trkpt lat="46.03032" lon="6.23887">
        <ele>745.16</ele>
        <time>2020-05-09T15:10:26Z</time>
      </trkpt>
      <trkpt lat="46.03051" lon="6.23903">
        <ele>745.16</ele>
        <time>2020-05-09T15:10:27Z</time>
      </trkpt>
      <trkpt lat="46.03068" lon="6.23922">
        <ele>745.64</ele>
        <time>2020-05-09T15:10:28Z</time>
      </trkpt>
      <trkpt lat="46.03215" lon="6.24088">
        <ele>747.56</ele>
        <time>2020-05-09T15:10:37Z</time>
      </trkpt>
      <trkpt lat="46.03306" lon="6.24226">
        <ele>750.45</ele>
        <time>2020-05-09T15:10:44Z</time>
      </trkpt>
      <trkpt lat="46.0332" lon="6.24241">
        <ele>750.93</ele>
        <time>2020-05-09T15:10:45Z</time>
      </trkpt>
      <trkpt lat="46.03335" lon="6.24253">
        <ele>750.93</ele>
        <time>2020-05-09T15:10:46Z</time>
      </trkpt>
      <trkpt lat="46.03351" lon="6.24264">
        <ele>750.93</ele>
        <time>2020-05-09T15:10:47Z</time>
      </trkpt>
      <trkpt lat="46.03369" lon="6.24269">
        <ele>751.41</ele>
        <time>2020-05-09T15:10:48Z</time>
      </trkpt>
      <trkpt lat="46.03385" lon="6.24271">
        <ele>751.89</ele>
        <time>2020-05-09T15:10:49Z</time>
      </trkpt>
      <trkpt lat="46.03401" lon="6.24268">
        <ele>752.37</ele>
        <time>2020-05-09T15:10:50Z</time>
      </trkpt>
      <trkpt lat="46.03417" lon="6.24262">
        <ele>752.85</ele>
        <time>2020-05-09T15:10:51Z</time>
      </trkpt>
      <trkpt lat="46.03431" lon="6.24253">
        <ele>752.85</ele>
        <time>2020-05-09T15:10:52Z</time>
      </trkpt>
      <trkpt lat="46.03444" lon="6.24241">
        <ele>753.33</ele>
        <time>2020-05-09T15:10:53Z</time>
      </trkpt>
      <trkpt lat="46.03456" lon="6.24224">
        <ele>754.29</ele>
        <time>2020-05-09T15:10:54Z</time>
      </trkpt>
      <trkpt lat="46.03467" lon="6.24206">
        <ele>754.77</ele>
        <time>2020-05-09T15:10:55Z</time>
      </trkpt>
      <trkpt lat="46.03479" lon="6.24187">
        <ele>755.25</ele>
        <time>2020-05-09T15:10:56Z</time>
      </trkpt>
      <trkpt lat="46.03492" lon="6.24167">
        <ele>756.21</ele>
        <time>2020-05-09T15:10:57Z</time>
      </trkpt>
      <trkpt lat="46.03535" lon="6.241">
        <ele>759.58</ele>
        <time>2020-05-09T15:11:00Z</time>
      </trkpt>
      <trkpt lat="46.03553" lon="6.24085">
        <ele>760.54</ele>
        <time>2020-05-09T15:11:01Z</time>
      </trkpt>
      <trkpt lat="46.03575" lon="6.24077">
        <ele>761.5</ele>
        <time>2020-05-09T15:11:02Z</time>
      </trkpt>
      <trkpt lat="46.03597" lon="6.24071">
        <ele>761.98</ele>
        <time>2020-05-09T15:11:03Z</time>
      </trkpt>
      <trkpt lat="46.0362" lon="6.24073">
        <ele>762.94</ele>
        <time>2020-05-09T15:11:04Z</time>
      </trkpt>
      <trkpt lat="46.03644" lon="6.24078">
        <ele>763.9</ele>
        <time>2020-05-09T15:11:05Z</time>
      </trkpt>
      <trkpt lat="46.03667" lon="6.24091">
        <ele>765.35</ele>
        <time>2020-05-09T15:11:06Z</time>
      </trkpt>
      <trkpt lat="46.03689" lon="6.24111">
        <ele>766.31</ele>
        <time>2020-05-09T15:11:07Z</time>
      </trkpt>
      <trkpt lat="46.0371" lon="6.24134">
        <ele>767.27</ele>
        <time>2020-05-09T15:11:08Z</time>
      </trkpt>
      <trkpt lat="46.03729" lon="6.24163">
        <ele>768.71</ele>
        <time>2020-05-09T15:11:09Z</time>
      </trkpt>
      <trkpt lat="46.03748" lon="6.24191">
        <ele>770.15</ele>
        <time>2020-05-09T15:11:10Z</time>
      </trkpt>
      <trkpt lat="46.03765" lon="6.24223">
        <ele>771.6</ele>
        <time>2020-05-09T15:11:11Z</time>
      </trkpt>
      <trkpt lat="46.03789" lon="6.2429">
        <ele>774.48</ele>
        <time>2020-05-09T15:11:13Z</time>
      </trkpt>
      <trkpt lat="46.03797" lon="6.24323">
        <ele>776.4</ele>
        <time>2020-05-09T15:11:14Z</time>
      </trkpt>
      <trkpt lat="46.03845" lon="6.24539">
        <ele>787.94</ele>
        <time>2020-05-09T15:11:21Z</time>
      </trkpt>
      <trkpt lat="46.03856" lon="6.24566">
        <ele>789.38</ele>
        <time>2020-05-09T15:11:22Z</time>
      </trkpt>
      <trkpt lat="46.03869" lon="6.24593">
        <ele>790.82</ele>
        <time>2020-05-09T15:11:23Z</time>
      </trkpt>
      <trkpt lat="46.03884" lon="6.24616">
        <ele>791.78</ele>
        <time>2020-05-09T15:11:24Z</time>
      </trkpt>
      <trkpt lat="46.03901" lon="6.24638">
        <ele>792.26</ele>
        <time>2020-05-09T15:11:25Z</time>
      </trkpt>
      <trkpt lat="46.0392" lon="6.24657">
        <ele>793.22</ele>
        <time>2020-05-09T15:11:26Z</time>
      </trkpt>
      <trkpt lat="46.03939" lon="6.24675">
        <ele>794.19</ele>
        <time>2020-05-09T15:11:27Z</time>
      </trkpt>
      <trkpt lat="46.0396" lon="6.24687">
        <ele>794.67</ele>
        <time>2020-05-09T15:11:28Z</time>
      </trkpt>
      <trkpt lat="46.0398" lon="6.247">
        <ele>795.15</ele>
        <time>2020-05-09T15:11:29Z</time>
      </trkpt>
      <trkpt lat="46.04002" lon="6.24706">
        <ele>795.15</ele>
        <time>2020-05-09T15:11:30Z</time>
      </trkpt>
      <trkpt lat="46.04024" lon="6.24712">
        <ele>795.63</ele>
        <time>2020-05-09T15:11:31Z</time>
      </trkpt>
      <trkpt lat="46.04084" lon="6.24736">
        <ele>795.15</ele>
        <time>2020-05-09T15:11:34Z</time>
      </trkpt>
      <trkpt lat="46.04103" lon="6.24748">
        <ele>794.67</ele>
        <time>2020-05-09T15:11:35Z</time>
      </trkpt>
      <trkpt lat="46.04122" lon="6.24764">
        <ele>794.19</ele>
        <time>2020-05-09T15:11:36Z</time>
      </trkpt>
      <trkpt lat="46.04139" lon="6.24783">
        <ele>793.71</ele>
        <time>2020-05-09T15:11:37Z</time>
      </trkpt>
      <trkpt lat="46.04175" lon="6.24824">
        <ele>791.78</ele>
        <time>2020-05-09T15:11:39Z</time>
      </trkpt>
      <trkpt lat="46.04334" lon="6.25062">
        <ele>791.78</ele>
        <time>2020-05-09T15:11:50Z</time>
      </trkpt>
      <trkpt lat="46.04346" lon="6.25086">
        <ele>792.74</ele>
        <time>2020-05-09T15:11:51Z</time>
      </trkpt>
      <trkpt lat="46.04355" lon="6.25111">
        <ele>793.71</ele>
        <time>2020-05-09T15:11:52Z</time>
      </trkpt>
      <trkpt lat="46.04364" lon="6.25138">
        <ele>794.67</ele>
        <time>2020-05-09T15:11:53Z</time>
      </trkpt>
      <trkpt lat="46.04423" lon="6.2539">
        <ele>801.88</ele>
        <time>2020-05-09T15:12:02Z</time>
      </trkpt>
      <trkpt lat="46.04501" lon="6.25608">
        <ele>803.32</ele>
        <time>2020-05-09T15:12:11Z</time>
      </trkpt>
      <trkpt lat="46.04663" lon="6.25946">
        <ele>799.47</ele>
        <time>2020-05-09T15:12:26Z</time>
      </trkpt>
      <trkpt lat="46.04795" lon="6.26219">
        <ele>793.71</ele>
        <time>2020-05-09T15:12:38Z</time>
      </trkpt>
      <trkpt lat="46.04853" lon="6.26331">
        <ele>789.38</ele>
        <time>2020-05-09T15:12:43Z</time>
      </trkpt>
      <trkpt lat="46.04951" lon="6.26448">
        <ele>783.61</ele>
        <time>2020-05-09T15:12:50Z</time>
      </trkpt>
      <trkpt lat="46.0505" lon="6.26534">
        <ele>776.4</ele>
        <time>2020-05-09T15:12:56Z</time>
      </trkpt>
      <trkpt lat="46.05079" lon="6.26572">
        <ele>774</ele>
        <time>2020-05-09T15:12:58Z</time>
      </trkpt>
      <trkpt lat="46.05102" lon="6.26616">
        <ele>771.6</ele>
        <time>2020-05-09T15:13:00Z</time>
      </trkpt>
      <trkpt lat="46.05144" lon="6.26771">
        <ele>765.35</ele>
        <time>2020-05-09T15:13:07Z</time>
      </trkpt>
      <trkpt lat="46.05142" lon="6.26931">
        <ele>762.94</ele>
        <time>2020-05-09T15:13:14Z</time>
      </trkpt>
      <trkpt lat="46.05124" lon="6.27223">
        <ele>758.14</ele>
        <time>2020-05-09T15:13:26Z</time>
      </trkpt>
      <trkpt lat="46.05151" lon="6.27488">
        <ele>749.97</ele>
        <time>2020-05-09T15:13:36Z</time>
      </trkpt>
      <trkpt lat="46.05189" lon="6.27657">
        <ele>747.56</ele>
        <time>2020-05-09T15:13:41Z</time>
      </trkpt>
      <trkpt lat="46.05257" lon="6.27862">
        <ele>745.64</ele>
        <time>2020-05-09T15:13:45Z</time>
      </trkpt>
      <trkpt lat="46.05387" lon="6.28232">
        <ele>740.35</ele>
        <time>2020-05-09T15:13:51Z</time>
      </trkpt>
      <trkpt lat="46.05483" lon="6.28503">
        <ele>732.66</ele>
        <time>2020-05-09T15:13:56Z</time>
      </trkpt>
      <trkpt lat="46.05572" lon="6.28762">
        <ele>725.45</ele>
        <time>2020-05-09T15:14:02Z</time>
      </trkpt>
      <trkpt lat="46.05617" lon="6.28865">
        <ele>723.05</ele>
        <time>2020-05-09T15:14:05Z</time>
      </trkpt>
      <trkpt lat="46.05634" lon="6.28893">
        <ele>722.09</ele>
        <time>2020-05-09T15:14:06Z</time>
      </trkpt>
      <trkpt lat="46.05651" lon="6.2892">
        <ele>721.13</ele>
        <time>2020-05-09T15:14:07Z</time>
      </trkpt>
      <trkpt lat="46.05671" lon="6.28941">
        <ele>719.68</ele>
        <time>2020-05-09T15:14:08Z</time>
      </trkpt>
      <trkpt lat="46.05693" lon="6.2896">
        <ele>718.24</ele>
        <time>2020-05-09T15:14:09Z</time>
      </trkpt>
      <trkpt lat="46.05716" lon="6.28976">
        <ele>717.28</ele>
        <time>2020-05-09T15:14:10Z</time>
      </trkpt>
      <trkpt lat="46.05739" lon="6.2899">
        <ele>715.84</ele>
        <time>2020-05-09T15:14:11Z</time>
      </trkpt>
      <trkpt lat="46.05765" lon="6.28999">
        <ele>714.4</ele>
        <time>2020-05-09T15:14:12Z</time>
      </trkpt>
      <trkpt lat="46.05791" lon="6.29006">
        <ele>713.44</ele>
        <time>2020-05-09T15:14:13Z</time>
      </trkpt>
      <trkpt lat="46.05817" lon="6.2901">
        <ele>711.51</ele>
        <time>2020-05-09T15:14:14Z</time>
      </trkpt>
      <trkpt lat="46.05843" lon="6.29007">
        <ele>710.07</ele>
        <time>2020-05-09T15:14:15Z</time>
      </trkpt>
      <trkpt lat="46.05867" lon="6.29004">
        <ele>708.63</ele>
        <time>2020-05-09T15:14:16Z</time>
      </trkpt>
      <trkpt lat="46.05891" lon="6.29001">
        <ele>707.67</ele>
        <time>2020-05-09T15:14:17Z</time>
      </trkpt>
      <trkpt lat="46.06067" lon="6.28942">
        <ele>699.02</ele>
        <time>2020-05-09T15:14:25Z</time>
      </trkpt>
      <trkpt lat="46.06277" lon="6.28871">
        <ele>687</ele>
        <time>2020-05-09T15:14:35Z</time>
      </trkpt>
      <trkpt lat="46.06408" lon="6.2884">
        <ele>678.35</ele>
        <time>2020-05-09T15:14:43Z</time>
      </trkpt>
      <trkpt lat="46.0642" lon="6.28838">
        <ele>676.91</ele>
        <time>2020-05-09T15:14:44Z</time>
      </trkpt>
      <trkpt lat="46.06434" lon="6.28858">
        <ele>675.94</ele>
        <time>2020-05-09T15:14:45Z</time>
      </trkpt>
      <trkpt lat="46.0644" lon="6.28859">
        <ele>674.98</ele>
        <time>2020-05-09T15:14:46Z</time>
      </trkpt>
      <trkpt lat="46.06454" lon="6.28851">
        <ele>674.5</ele>
        <time>2020-05-09T15:14:47Z</time>
      </trkpt>
      <trkpt lat="46.06456" lon="6.28849">
        <ele>674.02</ele>
        <time>2020-05-09T15:14:48Z</time>
      </trkpt>
      <trkpt lat="46.06468" lon="6.28829">
        <ele>673.54</ele>
        <time>2020-05-09T15:14:49Z</time>
      </trkpt>
      <trkpt lat="46.06479" lon="6.28826">
        <ele>673.06</ele>
        <time>2020-05-09T15:14:50Z</time>
      </trkpt>
      <trkpt lat="46.06492" lon="6.28823">
        <ele>672.58</ele>
        <time>2020-05-09T15:14:51Z</time>
      </trkpt>
      <trkpt lat="46.06611" lon="6.28755">
        <ele>665.85</ele>
        <time>2020-05-09T15:14:59Z</time>
      </trkpt>
      <trkpt lat="46.0675" lon="6.2868">
        <ele>659.6</ele>
        <time>2020-05-09T15:15:07Z</time>
      </trkpt>
      <trkpt lat="46.06769" lon="6.28676">
        <ele>658.64</ele>
        <time>2020-05-09T15:15:08Z</time>
      </trkpt>
      <trkpt lat="46.06787" lon="6.28673">
        <ele>657.2</ele>
        <time>2020-05-09T15:15:09Z</time>
      </trkpt>
      <trkpt lat="46.06807" lon="6.28674">
        <ele>656.72</ele>
        <time>2020-05-09T15:15:10Z</time>
      </trkpt>
      <trkpt lat="46.06826" lon="6.28679">
        <ele>655.28</ele>
        <time>2020-05-09T15:15:11Z</time>
      </trkpt>
      <trkpt lat="46.06844" lon="6.28683">
        <ele>654.31</ele>
        <time>2020-05-09T15:15:12Z</time>
      </trkpt>
      <trkpt lat="46.06862" lon="6.2869">
        <ele>653.35</ele>
        <time>2020-05-09T15:15:13Z</time>
      </trkpt>
      <trkpt lat="46.06879" lon="6.287">
        <ele>652.39</ele>
        <time>2020-05-09T15:15:14Z</time>
      </trkpt>
      <trkpt lat="46.06895" lon="6.2871">
        <ele>651.43</ele>
        <time>2020-05-09T15:15:15Z</time>
      </trkpt>
      <trkpt lat="46.06912" lon="6.2872">
        <ele>650.95</ele>
        <time>2020-05-09T15:15:16Z</time>
      </trkpt>
      <trkpt lat="46.07047" lon="6.28805">
        <ele>642.3</ele>
        <time>2020-05-09T15:15:24Z</time>
      </trkpt>
      <trkpt lat="46.07224" lon="6.28826">
        <ele>633.17</ele>
        <time>2020-05-09T15:15:33Z</time>
      </trkpt>
      <trkpt lat="46.07301" lon="6.28837">
        <ele>627.88</ele>
        <time>2020-05-09T15:15:37Z</time>
      </trkpt>
      <trkpt lat="46.07358" lon="6.28861">
        <ele>622.59</ele>
        <time>2020-05-09T15:15:41Z</time>
      </trkpt>
      <trkpt lat="46.07393" lon="6.28887">
        <ele>621.15</ele>
        <time>2020-05-09T15:15:42Z</time>
      </trkpt>
      <trkpt lat="46.07409" lon="6.28903">
        <ele>620.19</ele>
        <time>2020-05-09T15:15:43Z</time>
      </trkpt>
      <trkpt lat="46.07423" lon="6.28924">
        <ele>618.75</ele>
        <time>2020-05-09T15:15:44Z</time>
      </trkpt>
      <trkpt lat="46.07436" lon="6.28945">
        <ele>617.78</ele>
        <time>2020-05-09T15:15:45Z</time>
      </trkpt>
      <trkpt lat="46.07449" lon="6.28967">
        <ele>616.82</ele>
        <time>2020-05-09T15:15:46Z</time>
      </trkpt>
      <trkpt lat="46.07461" lon="6.28992">
        <ele>615.86</ele>
        <time>2020-05-09T15:15:47Z</time>
      </trkpt>
      <trkpt lat="46.0747" lon="6.29019">
        <ele>614.9</ele>
        <time>2020-05-09T15:15:48Z</time>
      </trkpt>
      <trkpt lat="46.07476" lon="6.29046">
        <ele>613.94</ele>
        <time>2020-05-09T15:15:49Z</time>
      </trkpt>
      <trkpt lat="46.07483" lon="6.29073">
        <ele>613.46</ele>
        <time>2020-05-09T15:15:50Z</time>
      </trkpt>
      <trkpt lat="46.07537" lon="6.2923">
        <ele>607.21</ele>
        <time>2020-05-09T15:15:56Z</time>
      </trkpt>
      <trkpt lat="46.0755" lon="6.29253">
        <ele>606.25</ele>
        <time>2020-05-09T15:15:57Z</time>
      </trkpt>
      <trkpt lat="46.07641" lon="6.29424">
        <ele>595.67</ele>
        <time>2020-05-09T15:16:04Z</time>
      </trkpt>
      <trkpt lat="46.07778" lon="6.29831">
        <ele>574.04</ele>
        <time>2020-05-09T15:16:18Z</time>
      </trkpt>
      <trkpt lat="46.07794" lon="6.2992">
        <ele>569.24</ele>
        <time>2020-05-09T15:16:21Z</time>
      </trkpt>
      <trkpt lat="46.07796" lon="6.2995">
        <ele>567.8</ele>
        <time>2020-05-09T15:16:22Z</time>
      </trkpt>
      <trkpt lat="46.07798" lon="6.29978">
        <ele>565.87</ele>
        <time>2020-05-09T15:16:23Z</time>
      </trkpt>
      <trkpt lat="46.07798" lon="6.30008">
        <ele>564.43</ele>
        <time>2020-05-09T15:16:24Z</time>
      </trkpt>
      <trkpt lat="46.07796" lon="6.30036">
        <ele>562.99</ele>
        <time>2020-05-09T15:16:25Z</time>
      </trkpt>
      <trkpt lat="46.07793" lon="6.30066">
        <ele>561.55</ele>
        <time>2020-05-09T15:16:26Z</time>
      </trkpt>
      <trkpt lat="46.07787" lon="6.30092">
        <ele>559.62</ele>
        <time>2020-05-09T15:16:27Z</time>
      </trkpt>
      <trkpt lat="46.07781" lon="6.30119">
        <ele>558.18</ele>
        <time>2020-05-09T15:16:28Z</time>
      </trkpt>
      <trkpt lat="46.07773" lon="6.30146">
        <ele>556.26</ele>
        <time>2020-05-09T15:16:29Z</time>
      </trkpt>
      <trkpt lat="46.07763" lon="6.30172">
        <ele>554.34</ele>
        <time>2020-05-09T15:16:30Z</time>
      </trkpt>
      <trkpt lat="46.07752" lon="6.30196">
        <ele>552.9</ele>
        <time>2020-05-09T15:16:31Z</time>
      </trkpt>
      <trkpt lat="46.0774" lon="6.30219">
        <ele>551.45</ele>
        <time>2020-05-09T15:16:32Z</time>
      </trkpt>
      <trkpt lat="46.07647" lon="6.30381">
        <ele>542.8</ele>
        <time>2020-05-09T15:16:40Z</time>
      </trkpt>
      <trkpt lat="46.07631" lon="6.3041">
        <ele>542.32</ele>
        <time>2020-05-09T15:16:42Z</time>
      </trkpt>
      <trkpt lat="46.07619" lon="6.30419">
        <ele>541.84</ele>
        <time>2020-05-09T15:16:43Z</time>
      </trkpt>
      <trkpt lat="46.07612" lon="6.30418">
        <ele>541.84</ele>
        <time>2020-05-09T15:16:44Z</time>
      </trkpt>
      <trkpt lat="46.07604" lon="6.30422">
        <ele>542.32</ele>
        <time>2020-05-09T15:16:45Z</time>
      </trkpt>
      <trkpt lat="46.076" lon="6.30431">
        <ele>542.32</ele>
        <time>2020-05-09T15:16:46Z</time>
      </trkpt>
      <trkpt lat="46.07602" lon="6.30445">
        <ele>542.32</ele>
        <time>2020-05-09T15:16:47Z</time>
      </trkpt>
      <trkpt lat="46.07598" lon="6.30465">
        <ele>541.36</ele>
        <time>2020-05-09T15:16:48Z</time>
      </trkpt>
      <trkpt lat="46.0759" lon="6.30481">
        <ele>540.88</ele>
        <time>2020-05-09T15:16:49Z</time>
      </trkpt>
      <trkpt lat="46.0758" lon="6.30501">
        <ele>539.92</ele>
        <time>2020-05-09T15:16:50Z</time>
      </trkpt>
      <trkpt lat="46.0757" lon="6.30522">
        <ele>539.44</ele>
        <time>2020-05-09T15:16:51Z</time>
      </trkpt>
      <trkpt lat="46.07509" lon="6.30695">
        <ele>537.03</ele>
        <time>2020-05-09T15:16:58Z</time>
      </trkpt>
      <trkpt lat="46.07477" lon="6.30905">
        <ele>530.3</ele>
        <time>2020-05-09T15:17:06Z</time>
      </trkpt>
      <trkpt lat="46.07455" lon="6.31198">
        <ele>518.29</ele>
        <time>2020-05-09T15:17:16Z</time>
      </trkpt>
      <trkpt lat="46.07418" lon="6.31319">
        <ele>514.44</ele>
        <time>2020-05-09T15:17:22Z</time>
      </trkpt>
      <trkpt lat="46.07406" lon="6.31334">
        <ele>514.44</ele>
        <time>2020-05-09T15:17:23Z</time>
      </trkpt>
      <trkpt lat="46.07401" lon="6.31343">
        <ele>513.96</ele>
        <time>2020-05-09T15:17:24Z</time>
      </trkpt>
      <trkpt lat="46.07395" lon="6.31357">
        <ele>513.96</ele>
        <time>2020-05-09T15:17:25Z</time>
      </trkpt>
      <trkpt lat="46.07395" lon="6.31372">
        <ele>513.96</ele>
        <time>2020-05-09T15:17:26Z</time>
      </trkpt>
      <trkpt lat="46.07397" lon="6.31382">
        <ele>513.48</ele>
        <time>2020-05-09T15:17:27Z</time>
      </trkpt>
      <trkpt lat="46.07399" lon="6.31392">
        <ele>513.48</ele>
        <time>2020-05-09T15:17:28Z</time>
      </trkpt>
      <trkpt lat="46.07397" lon="6.31404">
        <ele>513</ele>
        <time>2020-05-09T15:17:29Z</time>
      </trkpt>
      <trkpt lat="46.07394" lon="6.31412">
        <ele>512.52</ele>
        <time>2020-05-09T15:17:30Z</time>
      </trkpt>
      <trkpt lat="46.0739" lon="6.31423">
        <ele>512.04</ele>
        <time>2020-05-09T15:17:31Z</time>
      </trkpt>
      <trkpt lat="46.07386" lon="6.31435">
        <ele>511.56</ele>
        <time>2020-05-09T15:17:32Z</time>
      </trkpt>
      <trkpt lat="46.07379" lon="6.31454">
        <ele>511.56</ele>
        <time>2020-05-09T15:17:33Z</time>
      </trkpt>
      <trkpt lat="46.07372" lon="6.31462">
        <ele>511.56</ele>
        <time>2020-05-09T15:17:34Z</time>
      </trkpt>
      <trkpt lat="46.07285" lon="6.3157">
        <ele>509.64</ele>
        <time>2020-05-09T15:17:42Z</time>
      </trkpt>
      <trkpt lat="46.07211" lon="6.31679">
        <ele>509.16</ele>
        <time>2020-05-09T15:17:46Z</time>
      </trkpt>
      <trkpt lat="46.07124" lon="6.31819">
        <ele>508.67</ele>
        <time>2020-05-09T15:17:52Z</time>
      </trkpt>
      <trkpt lat="46.07034" lon="6.3205">
        <ele>506.27</ele>
        <time>2020-05-09T15:18:02Z</time>
      </trkpt>
      <trkpt lat="46.07027" lon="6.32125">
        <ele>506.75</ele>
        <time>2020-05-09T15:18:05Z</time>
      </trkpt>
      <trkpt lat="46.07026" lon="6.32149">
        <ele>506.75</ele>
        <time>2020-05-09T15:18:06Z</time>
      </trkpt>
      <trkpt lat="46.07029" lon="6.32215">
        <ele>506.27</ele>
        <time>2020-05-09T15:18:09Z</time>
      </trkpt>
      <trkpt lat="46.07032" lon="6.32236">
        <ele>506.27</ele>
        <time>2020-05-09T15:18:10Z</time>
      </trkpt>
      <trkpt lat="46.07081" lon="6.3243">
        <ele>500.5</ele>
        <time>2020-05-09T15:18:19Z</time>
      </trkpt>
      <trkpt lat="46.07109" lon="6.32656">
        <ele>493.29</ele>
        <time>2020-05-09T15:18:30Z</time>
      </trkpt>
      <trkpt lat="46.07114" lon="6.3273">
        <ele>488.97</ele>
        <time>2020-05-09T15:18:35Z</time>
      </trkpt>
      <trkpt lat="46.07114" lon="6.3274">
        <ele>488.49</ele>
        <time>2020-05-09T15:18:36Z</time>
      </trkpt>
      <trkpt lat="46.07108" lon="6.32759">
        <ele>487.53</ele>
        <time>2020-05-09T15:18:38Z</time>
      </trkpt>
      <trkpt lat="46.0711" lon="6.3277">
        <ele>486.56</ele>
        <time>2020-05-09T15:18:39Z</time>
      </trkpt>
      <trkpt lat="46.07115" lon="6.3278">
        <ele>486.08</ele>
        <time>2020-05-09T15:18:40Z</time>
      </trkpt>
      <trkpt lat="46.07122" lon="6.32782">
        <ele>485.6</ele>
        <time>2020-05-09T15:18:41Z</time>
      </trkpt>
      <trkpt lat="46.07131" lon="6.32779">
        <ele>485.12</ele>
        <time>2020-05-09T15:18:42Z</time>
      </trkpt>
      <trkpt lat="46.07136" lon="6.32776">
        <ele>485.12</ele>
        <time>2020-05-09T15:18:43Z</time>
      </trkpt>
      <trkpt lat="46.07149" lon="6.32755">
        <ele>484.64</ele>
        <time>2020-05-09T15:18:44Z</time>
      </trkpt>
      <trkpt lat="46.07161" lon="6.32744">
        <ele>484.16</ele>
        <time>2020-05-09T15:18:45Z</time>
      </trkpt>
      <trkpt lat="46.07173" lon="6.3273">
        <ele>483.2</ele>
        <time>2020-05-09T15:18:46Z</time>
      </trkpt>
      <trkpt lat="46.07183" lon="6.32714">
        <ele>482.24</ele>
        <time>2020-05-09T15:18:47Z</time>
      </trkpt>
      <trkpt lat="46.07216" lon="6.32664">
        <ele>479.35</ele>
        <time>2020-05-09T15:18:51Z</time>
      </trkpt>
      <trkpt lat="46.07222" lon="6.32656">
        <ele>479.35</ele>
        <time>2020-05-09T15:18:52Z</time>
      </trkpt>
      <trkpt lat="46.07226" lon="6.32649">
        <ele>478.87</ele>
        <time>2020-05-09T15:18:53Z</time>
      </trkpt>
      <trkpt lat="46.07235" lon="6.32645">
        <ele>478.39</ele>
        <time>2020-05-09T15:18:54Z</time>
      </trkpt>
      <trkpt lat="46.07233" lon="6.32636">
        <ele>477.91</ele>
        <time>2020-05-09T15:18:55Z</time>
      </trkpt>
      <trkpt lat="46.07224" lon="6.32634">
        <ele>477.43</ele>
        <time>2020-05-09T15:18:56Z</time>
      </trkpt>
      <trkpt lat="46.07218" lon="6.32625">
        <ele>476.95</ele>
        <time>2020-05-09T15:18:57Z</time>
      </trkpt>
      <trkpt lat="46.07211" lon="6.32613">
        <ele>477.43</ele>
        <time>2020-05-09T15:18:58Z</time>
      </trkpt>
      <trkpt lat="46.07204" lon="6.326">
        <ele>477.91</ele>
        <time>2020-05-09T15:18:59Z</time>
      </trkpt>
      <trkpt lat="46.07198" lon="6.32586">
        <ele>478.87</ele>
        <time>2020-05-09T15:19:00Z</time>
      </trkpt>
      <trkpt lat="46.07195" lon="6.3257">
        <ele>479.84</ele>
        <time>2020-05-09T15:19:01Z</time>
      </trkpt>
      <trkpt lat="46.07193" lon="6.32553">
        <ele>480.32</ele>
        <time>2020-05-09T15:19:02Z</time>
      </trkpt>
      <trkpt lat="46.07188" lon="6.32521">
        <ele>481.76</ele>
        <time>2020-05-09T15:19:04Z</time>
      </trkpt>
      <trkpt lat="46.07186" lon="6.32512">
        <ele>482.24</ele>
        <time>2020-05-09T15:19:05Z</time>
      </trkpt>
      <trkpt lat="46.07185" lon="6.32507">
        <ele>482.72</ele>
        <time>2020-05-09T15:19:06Z</time>
      </trkpt>
      <trkpt lat="46.07176" lon="6.32504">
        <ele>483.2</ele>
        <time>2020-05-09T15:19:07Z</time>
      </trkpt>
      <trkpt lat="46.07174" lon="6.3251">
        <ele>483.68</ele>
        <time>2020-05-09T15:19:08Z</time>
      </trkpt>
      <trkpt lat="46.0717" lon="6.32518">
        <ele>484.16</ele>
        <time>2020-05-09T15:19:09Z</time>
      </trkpt>
      <trkpt lat="46.07167" lon="6.32527">
        <ele>484.16</ele>
        <time>2020-05-09T15:19:10Z</time>
      </trkpt>
      <trkpt lat="46.07163" lon="6.32536">
        <ele>484.64</ele>
        <time>2020-05-09T15:19:11Z</time>
      </trkpt>
      <trkpt lat="46.07161" lon="6.32543">
        <ele>484.64</ele>
        <time>2020-05-09T15:19:12Z</time>
      </trkpt>
      <trkpt lat="46.07159" lon="6.32547">
        <ele>485.12</ele>
        <time>2020-05-09T15:19:13Z</time>
      </trkpt>
      <trkpt lat="46.07149" lon="6.32557">
        <ele>485.6</ele>
        <time>2020-05-09T15:19:14Z</time>
      </trkpt>
      <trkpt lat="46.07149" lon="6.32557">
        <ele>485.6</ele>
        <time>2020-05-09T15:19:25Z</time>
      </trkpt>
      <trkpt lat="46.07163" lon="6.32569">
        <ele>492.81</ele>
        <time>2020-05-09T15:54:04Z</time>
      </trkpt>
      <trkpt lat="46.07157" lon="6.32568">
        <ele>498.1</ele>
        <time>2020-05-09T15:54:05Z</time>
      </trkpt>
      <trkpt lat="46.07152" lon="6.32544">
        <ele>496.18</ele>
        <time>2020-05-09T15:54:18Z</time>
      </trkpt>
      <trkpt lat="46.07147" lon="6.32556">
        <ele>496.66</ele>
        <time>2020-05-09T15:54:20Z</time>
      </trkpt>
      <trkpt lat="46.07146" lon="6.32555">
        <ele>496.66</ele>
        <time>2020-05-09T15:54:21Z</time>
      </trkpt>
      <trkpt lat="46.07153" lon="6.32562">
        <ele>496.66</ele>
        <time>2020-05-09T15:54:22Z</time>
      </trkpt>
      <trkpt lat="46.07153" lon="6.32562">
        <ele>496.66</ele>
        <time>2020-05-09T15:54:23Z</time>
      </trkpt>
      <trkpt lat="46.07149" lon="6.3259">
        <ele>496.66</ele>
        <time>2020-05-09T15:54:24Z</time>
      </trkpt>
      <trkpt lat="46.07138" lon="6.32613">
        <ele>496.66</ele>
        <time>2020-05-09T15:54:26Z</time>
      </trkpt>
      <trkpt lat="46.07129" lon="6.32599">
        <ele>496.18</ele>
        <time>2020-05-09T15:54:27Z</time>
      </trkpt>
      <trkpt lat="46.07133" lon="6.32678">
        <ele>494.26</ele>
        <time>2020-05-09T15:54:32Z</time>
      </trkpt>
      <trkpt lat="46.07134" lon="6.32692">
        <ele>493.77</ele>
        <time>2020-05-09T15:54:33Z</time>
      </trkpt>
      <trkpt lat="46.0714" lon="6.32699">
        <ele>492.33</ele>
        <time>2020-05-09T15:54:34Z</time>
      </trkpt>
      <trkpt lat="46.07149" lon="6.32707">
        <ele>491.37</ele>
        <time>2020-05-09T15:54:35Z</time>
      </trkpt>
      <trkpt lat="46.07161" lon="6.32709">
        <ele>490.41</ele>
        <time>2020-05-09T15:54:36Z</time>
      </trkpt>
      <trkpt lat="46.07169" lon="6.32702">
        <ele>489.45</ele>
        <time>2020-05-09T15:54:37Z</time>
      </trkpt>
      <trkpt lat="46.07178" lon="6.32693">
        <ele>488.49</ele>
        <time>2020-05-09T15:54:38Z</time>
      </trkpt>
      <trkpt lat="46.07186" lon="6.3268">
        <ele>487.53</ele>
        <time>2020-05-09T15:54:39Z</time>
      </trkpt>
      <trkpt lat="46.07194" lon="6.32666">
        <ele>486.56</ele>
        <time>2020-05-09T15:54:40Z</time>
      </trkpt>
      <trkpt lat="46.07201" lon="6.32653">
        <ele>485.6</ele>
        <time>2020-05-09T15:54:41Z</time>
      </trkpt>
      <trkpt lat="46.07207" lon="6.32643">
        <ele>484.64</ele>
        <time>2020-05-09T15:54:42Z</time>
      </trkpt>
      <trkpt lat="46.07207" lon="6.32636">
        <ele>484.16</ele>
        <time>2020-05-09T15:54:43Z</time>
      </trkpt>
      <trkpt lat="46.07208" lon="6.32632">
        <ele>484.16</ele>
        <time>2020-05-09T15:54:44Z</time>
      </trkpt>
      <trkpt lat="46.07209" lon="6.32617">
        <ele>481.28</ele>
        <time>2020-05-09T15:54:53Z</time>
      </trkpt>
      <trkpt lat="46.07211" lon="6.32613">
        <ele>481.28</ele>
        <time>2020-05-09T15:54:54Z</time>
      </trkpt>
      <trkpt lat="46.07213" lon="6.32617">
        <ele>481.28</ele>
        <time>2020-05-09T15:54:55Z</time>
      </trkpt>
      <trkpt lat="46.07216" lon="6.32621">
        <ele>480.8</ele>
        <time>2020-05-09T15:54:56Z</time>
      </trkpt>
      <trkpt lat="46.07224" lon="6.32634">
        <ele>480.8</ele>
        <time>2020-05-09T15:54:57Z</time>
      </trkpt>
      <trkpt lat="46.07225" lon="6.32638">
        <ele>480.32</ele>
        <time>2020-05-09T15:54:58Z</time>
      </trkpt>
      <trkpt lat="46.07221" lon="6.32656">
        <ele>479.84</ele>
        <time>2020-05-09T15:54:59Z</time>
      </trkpt>
      <trkpt lat="46.07215" lon="6.32666">
        <ele>479.84</ele>
        <time>2020-05-09T15:55:00Z</time>
      </trkpt>
      <trkpt lat="46.07206" lon="6.32679">
        <ele>479.84</ele>
        <time>2020-05-09T15:55:01Z</time>
      </trkpt>
      <trkpt lat="46.07171" lon="6.32734">
        <ele>483.2</ele>
        <time>2020-05-09T15:55:05Z</time>
      </trkpt>
      <trkpt lat="46.07162" lon="6.32743">
        <ele>484.16</ele>
        <time>2020-05-09T15:55:06Z</time>
      </trkpt>
      <trkpt lat="46.07155" lon="6.32749">
        <ele>484.64</ele>
        <time>2020-05-09T15:55:07Z</time>
      </trkpt>
      <trkpt lat="46.07147" lon="6.32757">
        <ele>485.6</ele>
        <time>2020-05-09T15:55:08Z</time>
      </trkpt>
      <trkpt lat="46.07136" lon="6.3275">
        <ele>486.08</ele>
        <time>2020-05-09T15:55:09Z</time>
      </trkpt>
      <trkpt lat="46.07134" lon="6.32749">
        <ele>487.05</ele>
        <time>2020-05-09T15:55:10Z</time>
      </trkpt>
      <trkpt lat="46.07125" lon="6.32739">
        <ele>487.53</ele>
        <time>2020-05-09T15:55:11Z</time>
      </trkpt>
      <trkpt lat="46.07123" lon="6.32729">
        <ele>488.49</ele>
        <time>2020-05-09T15:55:12Z</time>
      </trkpt>
      <trkpt lat="46.07122" lon="6.3271">
        <ele>488.97</ele>
        <time>2020-05-09T15:55:13Z</time>
      </trkpt>
      <trkpt lat="46.0712" lon="6.32695">
        <ele>489.45</ele>
        <time>2020-05-09T15:55:14Z</time>
      </trkpt>
      <trkpt lat="46.07119" lon="6.3268">
        <ele>490.41</ele>
        <time>2020-05-09T15:55:15Z</time>
      </trkpt>
      <trkpt lat="46.07106" lon="6.32551">
        <ele>494.74</ele>
        <time>2020-05-09T15:55:22Z</time>
      </trkpt>
      <trkpt lat="46.07062" lon="6.32361">
        <ele>500.98</ele>
        <time>2020-05-09T15:55:30Z</time>
      </trkpt>
      <trkpt lat="46.07025" lon="6.32186">
        <ele>506.27</ele>
        <time>2020-05-09T15:55:39Z</time>
      </trkpt>
      <trkpt lat="46.07027" lon="6.32123">
        <ele>506.75</ele>
        <time>2020-05-09T15:55:44Z</time>
      </trkpt>
      <trkpt lat="46.07027" lon="6.32114">
        <ele>506.75</ele>
        <time>2020-05-09T15:55:45Z</time>
      </trkpt>
      <trkpt lat="46.0702" lon="6.321">
        <ele>507.23</ele>
        <time>2020-05-09T15:55:47Z</time>
      </trkpt>
      <trkpt lat="46.07006" lon="6.32096">
        <ele>507.23</ele>
        <time>2020-05-09T15:55:48Z</time>
      </trkpt>
      <trkpt lat="46.06993" lon="6.32091">
        <ele>507.71</ele>
        <time>2020-05-09T15:55:50Z</time>
      </trkpt>
      <trkpt lat="46.06986" lon="6.32089">
        <ele>507.71</ele>
        <time>2020-05-09T15:55:51Z</time>
      </trkpt>
      <trkpt lat="46.0698" lon="6.32083">
        <ele>507.71</ele>
        <time>2020-05-09T15:55:52Z</time>
      </trkpt>
      <trkpt lat="46.06977" lon="6.32073">
        <ele>508.19</ele>
        <time>2020-05-09T15:55:53Z</time>
      </trkpt>
      <trkpt lat="46.06974" lon="6.32063">
        <ele>508.67</ele>
        <time>2020-05-09T15:55:54Z</time>
      </trkpt>
      <trkpt lat="46.0697" lon="6.32051">
        <ele>509.16</ele>
        <time>2020-05-09T15:55:55Z</time>
      </trkpt>
      <trkpt lat="46.06946" lon="6.31966">
        <ele>512.04</ele>
        <time>2020-05-09T15:56:03Z</time>
      </trkpt>
      <trkpt lat="46.06912" lon="6.31859">
        <ele>514.44</ele>
        <time>2020-05-09T15:56:11Z</time>
      </trkpt>
      <trkpt lat="46.06909" lon="6.31849">
        <ele>514.44</ele>
        <time>2020-05-09T15:56:12Z</time>
      </trkpt>
      <trkpt lat="46.06906" lon="6.3184">
        <ele>514.44</ele>
        <time>2020-05-09T15:56:13Z</time>
      </trkpt>
      <trkpt lat="46.06876" lon="6.31743">
        <ele>517.81</ele>
        <time>2020-05-09T15:56:20Z</time>
      </trkpt>
      <trkpt lat="46.0685" lon="6.31656">
        <ele>522.61</ele>
        <time>2020-05-09T15:56:27Z</time>
      </trkpt>
      <trkpt lat="46.06817" lon="6.31555">
        <ele>528.38</ele>
        <time>2020-05-09T15:56:33Z</time>
      </trkpt>
      <trkpt lat="46.06804" lon="6.31514">
        <ele>530.3</ele>
        <time>2020-05-09T15:56:36Z</time>
      </trkpt>
      <trkpt lat="46.06799" lon="6.31501">
        <ele>531.27</ele>
        <time>2020-05-09T15:56:37Z</time>
      </trkpt>
      <trkpt lat="46.06795" lon="6.31488">
        <ele>532.23</ele>
        <time>2020-05-09T15:56:38Z</time>
      </trkpt>
      <trkpt lat="46.06782" lon="6.31447">
        <ele>534.63</ele>
        <time>2020-05-09T15:56:41Z</time>
      </trkpt>
      <trkpt lat="46.06752" lon="6.31376">
        <ele>537.99</ele>
        <time>2020-05-09T15:56:47Z</time>
      </trkpt>
      <trkpt lat="46.06751" lon="6.31361">
        <ele>538.48</ele>
        <time>2020-05-09T15:56:48Z</time>
      </trkpt>
      <trkpt lat="46.06749" lon="6.31332">
        <ele>540.4</ele>
        <time>2020-05-09T15:56:50Z</time>
      </trkpt>
      <trkpt lat="46.06739" lon="6.31297">
        <ele>542.32</ele>
        <time>2020-05-09T15:56:54Z</time>
      </trkpt>
      <trkpt lat="46.06737" lon="6.31292">
        <ele>542.8</ele>
        <time>2020-05-09T15:56:55Z</time>
      </trkpt>
      <trkpt lat="46.06735" lon="6.31286">
        <ele>543.28</ele>
        <time>2020-05-09T15:56:56Z</time>
      </trkpt>
      <trkpt lat="46.06732" lon="6.31281">
        <ele>544.24</ele>
        <time>2020-05-09T15:56:57Z</time>
      </trkpt>
      <trkpt lat="46.06729" lon="6.31272">
        <ele>544.72</ele>
        <time>2020-05-09T15:56:58Z</time>
      </trkpt>
      <trkpt lat="46.06734" lon="6.31255">
        <ele>545.2</ele>
        <time>2020-05-09T15:56:59Z</time>
      </trkpt>
      <trkpt lat="46.06727" lon="6.31247">
        <ele>546.17</ele>
        <time>2020-05-09T15:57:00Z</time>
      </trkpt>
      <trkpt lat="46.06725" lon="6.31236">
        <ele>546.65</ele>
        <time>2020-05-09T15:57:01Z</time>
      </trkpt>
      <trkpt lat="46.06724" lon="6.31226">
        <ele>547.13</ele>
        <time>2020-05-09T15:57:02Z</time>
      </trkpt>
      <trkpt lat="46.06711" lon="6.31199">
        <ele>548.57</ele>
        <time>2020-05-09T15:57:04Z</time>
      </trkpt>
      <trkpt lat="46.06666" lon="6.31145">
        <ele>550.97</ele>
        <time>2020-05-09T15:57:10Z</time>
      </trkpt>
      <trkpt lat="46.06652" lon="6.31136">
        <ele>551.93</ele>
        <time>2020-05-09T15:57:15Z</time>
      </trkpt>
      <trkpt lat="46.0665" lon="6.31135">
        <ele>552.41</ele>
        <time>2020-05-09T15:57:16Z</time>
      </trkpt>
      <trkpt lat="46.06647" lon="6.31133">
        <ele>552.41</ele>
        <time>2020-05-09T15:57:17Z</time>
      </trkpt>
      <trkpt lat="46.06641" lon="6.31129">
        <ele>552.41</ele>
        <time>2020-05-09T15:57:18Z</time>
      </trkpt>
      <trkpt lat="46.06633" lon="6.31123">
        <ele>552.9</ele>
        <time>2020-05-09T15:57:19Z</time>
      </trkpt>
      <trkpt lat="46.06621" lon="6.31113">
        <ele>552.9</ele>
        <time>2020-05-09T15:57:21Z</time>
      </trkpt>
      <trkpt lat="46.06615" lon="6.31109">
        <ele>552.9</ele>
        <time>2020-05-09T15:57:22Z</time>
      </trkpt>
      <trkpt lat="46.06611" lon="6.31107">
        <ele>552.9</ele>
        <time>2020-05-09T15:57:23Z</time>
      </trkpt>
      <trkpt lat="46.06607" lon="6.31104">
        <ele>553.38</ele>
        <time>2020-05-09T15:57:24Z</time>
      </trkpt>
      <trkpt lat="46.06602" lon="6.31101">
        <ele>553.38</ele>
        <time>2020-05-09T15:57:25Z</time>
      </trkpt>
      <trkpt lat="46.06598" lon="6.31095">
        <ele>553.86</ele>
        <time>2020-05-09T15:57:26Z</time>
      </trkpt>
      <trkpt lat="46.06599" lon="6.31089">
        <ele>553.86</ele>
        <time>2020-05-09T15:57:27Z</time>
      </trkpt>
      <trkpt lat="46.066" lon="6.31082">
        <ele>554.34</ele>
        <time>2020-05-09T15:57:28Z</time>
      </trkpt>
      <trkpt lat="46.06601" lon="6.31077">
        <ele>554.34</ele>
        <time>2020-05-09T15:57:29Z</time>
      </trkpt>
      <trkpt lat="46.06601" lon="6.31073">
        <ele>554.82</ele>
        <time>2020-05-09T15:57:30Z</time>
      </trkpt>
      <trkpt lat="46.06602" lon="6.31069">
        <ele>554.82</ele>
        <time>2020-05-09T15:57:31Z</time>
      </trkpt>
      <trkpt lat="46.06602" lon="6.31067">
        <ele>555.3</ele>
        <time>2020-05-09T15:57:32Z</time>
      </trkpt>
      <trkpt lat="46.06605" lon="6.31044">
        <ele>556.74</ele>
        <time>2020-05-09T15:57:35Z</time>
      </trkpt>
      <trkpt lat="46.06606" lon="6.31031">
        <ele>557.22</ele>
        <time>2020-05-09T15:57:36Z</time>
      </trkpt>
      <trkpt lat="46.06611" lon="6.31007">
        <ele>557.7</ele>
        <time>2020-05-09T15:57:38Z</time>
      </trkpt>
      <trkpt lat="46.06615" lon="6.30987">
        <ele>559.14</ele>
        <time>2020-05-09T15:57:40Z</time>
      </trkpt>
      <trkpt lat="46.0662" lon="6.30964">
        <ele>561.07</ele>
        <time>2020-05-09T15:57:42Z</time>
      </trkpt>
      <trkpt lat="46.06622" lon="6.30953">
        <ele>562.03</ele>
        <time>2020-05-09T15:57:43Z</time>
      </trkpt>
      <trkpt lat="46.06625" lon="6.30941">
        <ele>563.47</ele>
        <time>2020-05-09T15:57:44Z</time>
      </trkpt>
      <trkpt lat="46.06627" lon="6.30931">
        <ele>564.43</ele>
        <time>2020-05-09T15:57:45Z</time>
      </trkpt>
      <trkpt lat="46.06628" lon="6.30925">
        <ele>564.91</ele>
        <time>2020-05-09T15:57:46Z</time>
      </trkpt>
      <trkpt lat="46.06632" lon="6.30914">
        <ele>566.35</ele>
        <time>2020-05-09T15:57:48Z</time>
      </trkpt>
      <trkpt lat="46.06649" lon="6.30911">
        <ele>566.83</ele>
        <time>2020-05-09T15:57:49Z</time>
      </trkpt>
      <trkpt lat="46.06649" lon="6.30911">
        <ele>567.8</ele>
        <time>2020-05-09T15:57:50Z</time>
      </trkpt>
      <trkpt lat="46.06654" lon="6.3091">
        <ele>568.28</ele>
        <time>2020-05-09T15:57:51Z</time>
      </trkpt>
      <trkpt lat="46.06661" lon="6.30908">
        <ele>568.76</ele>
        <time>2020-05-09T15:57:52Z</time>
      </trkpt>
      <trkpt lat="46.06667" lon="6.30907">
        <ele>569.72</ele>
        <time>2020-05-09T15:57:53Z</time>
      </trkpt>
      <trkpt lat="46.06672" lon="6.30906">
        <ele>570.68</ele>
        <time>2020-05-09T15:57:54Z</time>
      </trkpt>
      <trkpt lat="46.06689" lon="6.30901">
        <ele>572.6</ele>
        <time>2020-05-09T15:57:57Z</time>
      </trkpt>
      <trkpt lat="46.06695" lon="6.30896">
        <ele>573.08</ele>
        <time>2020-05-09T15:57:58Z</time>
      </trkpt>
      <trkpt lat="46.067" lon="6.30888">
        <ele>573.08</ele>
        <time>2020-05-09T15:57:59Z</time>
      </trkpt>
      <trkpt lat="46.06723" lon="6.30852">
        <ele>573.08</ele>
        <time>2020-05-09T15:58:03Z</time>
      </trkpt>
      <trkpt lat="46.06729" lon="6.30844">
        <ele>573.08</ele>
        <time>2020-05-09T15:58:04Z</time>
      </trkpt>
      <trkpt lat="46.06733" lon="6.30836">
        <ele>572.6</ele>
        <time>2020-05-09T15:58:05Z</time>
      </trkpt>
      <trkpt lat="46.06737" lon="6.30831">
        <ele>572.12</ele>
        <time>2020-05-09T15:58:06Z</time>
      </trkpt>
      <trkpt lat="46.06741" lon="6.30825">
        <ele>571.64</ele>
        <time>2020-05-09T15:58:07Z</time>
      </trkpt>
      <trkpt lat="46.06745" lon="6.30818">
        <ele>571.16</ele>
        <time>2020-05-09T15:58:08Z</time>
      </trkpt>
      <trkpt lat="46.06749" lon="6.30813">
        <ele>570.2</ele>
        <time>2020-05-09T15:58:09Z</time>
      </trkpt>
      <trkpt lat="46.06751" lon="6.3081">
        <ele>569.24</ele>
        <time>2020-05-09T15:58:10Z</time>
      </trkpt>
      <trkpt lat="46.06751" lon="6.3081">
        <ele>569.24</ele>
        <time>2020-05-09T15:58:11Z</time>
      </trkpt>
      <trkpt lat="46.06751" lon="6.3081">
        <ele>568.76</ele>
        <time>2020-05-09T15:58:28Z</time>
      </trkpt>
      <trkpt lat="46.06751" lon="6.3081">
        <ele>568.76</ele>
        <time>2020-05-09T15:58:40Z</time>
      </trkpt>
      <trkpt lat="46.06752" lon="6.30808">
        <ele>567.32</ele>
        <time>2020-05-09T15:58:43Z</time>
      </trkpt>
      <trkpt lat="46.06753" lon="6.30807">
        <ele>566.35</ele>
        <time>2020-05-09T15:58:44Z</time>
      </trkpt>
      <trkpt lat="46.06754" lon="6.30805">
        <ele>565.87</ele>
        <time>2020-05-09T15:58:45Z</time>
      </trkpt>
    </trkseg>
  </trk>
</gpx>